Time,TemperatureF,DewpointF,PressureIn,WindDirection,WindDirectionDegrees,WindSpeedMPH,WindSpeedGustMPH,Humidity,HourlyPrecipIn,Conditions,Clouds,dailyrainin,SoftwareType,DateUTC
2013-04-17 00:12:00,58.9,56.0,30.18,SSW,203,2.0,4.0,90,0.00,,,0.00,weatherlink.com 1.10,2013-04-17 04:12:00,
2013-04-17 00:27:00,58.9,56.0,30.18,SSW,195,1.0,4.0,90,0.00,,,0.00,weatherlink.com 1.10,2013-04-17 04:27:00,
2013-04-17 00:42:00,58.8,56.0,30.18,SSW,209,4.0,5.0,91,0.00,,,0.00,weatherlink.com 1.10,2013-04-17 04:42:00,
2013-04-17 00:57:00,58.8,56.0,30.17,SW,214,2.0,6.0,90,0.00,,,0.00,weatherlink.com 1.10,2013-04-17 04:57:00,
2013-04-17 01:12:00,59.0,56.0,30.17,SSW,207,3.0,6.0,90,0.00,,,0.00,weatherlink.com 1.10,2013-04-17 05:12:00,
2013-04-17 01:27:00,59.0,56.0,30.20,North,351,2.0,3.0,90,0.00,,,0.00,weatherlink.com 1.10,2013-04-17 05:27:00,
2013-04-17 01:42:00,58.8,56.0,30.21,NNW,338,0.0,2.0,91,0.00,,,0.00,weatherlink.com 1.10,2013-04-17 05:42:00,
2013-04-17 01:57:00,58.9,56.0,30.22,NNW,327,2.0,2.0,91,0.00,,,0.00,weatherlink.com 1.10,2013-04-17 05:57:00,
2013-04-17 02:12:00,59.2,57.0,30.20,SW,221,3.0,3.0,91,0.00,,,0.00,weatherlink.com 1.10,2013-04-17 06:12:00,
2013-04-17 02:27:00,61.0,58.0,30.18,SSW,201,5.0,9.0,90,0.00,,,0.00,weatherlink.com 1.10,2013-04-17 06:27:00,
2013-04-17 02:42:00,62.0,59.0,30.17,West,259,2.0,8.0,88,0.00,,,0.00,weatherlink.com 1.10,2013-04-17 06:42:00,
2013-04-17 02:57:00,62.6,59.0,30.17,WSW,246,3.0,6.0,87,0.00,,,0.00,weatherlink.com 1.10,2013-04-17 06:57:00,
2013-04-17 03:12:00,62.7,59.0,30.16,SW,231,4.0,5.0,87,0.00,,,0.00,weatherlink.com 1.10,2013-04-17 07:12:00,
2013-04-17 03:27:00,62.3,59.0,30.16,SW,236,3.0,4.0,88,0.00,,,0.00,weatherlink.com 1.10,2013-04-17 07:27:00,
2013-04-17 03:42:00,62.2,59.0,30.15,SSW,198,4.0,5.0,88,0.00,,,0.00,weatherlink.com 1.10,2013-04-17 07:42:00,
2013-04-17 03:58:00,61.6,58.0,30.14,SSW,204,3.0,8.0,89,0.00,,,0.00,weatherlink.com 1.10,2013-04-17 07:58:00,
2013-04-17 04:13:00,60.8,58.0,30.14,SW,221,2.0,7.0,90,0.00,,,0.00,weatherlink.com 1.10,2013-04-17 08:13:00,
2013-04-17 04:28:00,60.3,58.0,30.14,South,186,5.0,8.0,91,0.00,,,0.00,weatherlink.com 1.10,2013-04-17 08:28:00,
2013-04-17 04:43:00,59.8,57.0,30.15,West,262,0.0,9.0,91,0.00,,,0.00,weatherlink.com 1.10,2013-04-17 08:43:00,
2013-04-17 04:58:00,59.7,57.0,30.16,SW,236,0.0,4.0,92,0.00,,,0.00,weatherlink.com 1.10,2013-04-17 08:58:00,
2013-04-17 05:13:00,59.5,57.0,30.16,WSW,239,0.0,1.0,92,0.00,,,0.00,weatherlink.com 1.10,2013-04-17 09:13:00,
2013-04-17 05:28:00,59.1,57.0,30.16,SSW,210,2.0,3.0,93,0.00,,,0.00,weatherlink.com 1.10,2013-04-17 09:28:00,
2013-04-17 05:43:00,58.7,57.0,30.16,SW,214,1.0,3.0,93,0.00,,,0.00,weatherlink.com 1.10,2013-04-17 09:43:00,
2013-04-17 05:58:00,58.4,56.0,30.17,SSW,212,1.0,4.0,93,0.00,,,0.00,weatherlink.com 1.10,2013-04-17 09:58:00,
2013-04-17 06:13:00,58.2,57.0,30.18,SSW,207,0.0,1.0,94,0.00,,,0.00,weatherlink.com 1.10,2013-04-17 10:13:00,
2013-04-17 06:28:00,58.0,56.0,30.18,SSW,204,0.0,1.0,94,0.00,,,0.00,weatherlink.com 1.10,2013-04-17 10:28:00,
2013-04-17 06:43:00,57.8,56.0,30.19,SW,236,0.0,0.0,94,0.00,,,0.00,weatherlink.com 1.10,2013-04-17 10:43:00,
2013-04-17 06:58:00,58.1,56.0,30.19,SW,229,0.0,1.0,94,0.00,,,0.00,weatherlink.com 1.10,2013-04-17 10:58:00,
2013-04-17 07:13:00,58.4,57.0,30.20,NNW,329,0.0,0.0,94,0.00,,,0.00,weatherlink.com 1.10,2013-04-17 11:13:00,
2013-04-17 07:28:00,59.8,58.0,30.20,NNW,328,0.0,0.0,94,0.00,,,0.00,weatherlink.com 1.10,2013-04-17 11:28:00,
2013-04-17 07:43:00,61.6,59.0,30.21,East,101,0.0,0.0,90,0.00,,,0.00,weatherlink.com 1.10,2013-04-17 11:43:00,
2013-04-17 07:58:00,62.2,58.0,30.21,SW,221,1.0,1.0,87,0.00,,,0.00,weatherlink.com 1.10,2013-04-17 11:58:00,
2013-04-17 08:13:00,61.3,58.0,30.20,SSW,193,0.0,2.0,89,0.00,,,0.00,weatherlink.com 1.10,2013-04-17 12:13:00,
2013-04-17 08:28:00,61.6,58.0,30.20,SSW,195,0.0,2.0,89,0.00,,,0.00,weatherlink.com 1.10,2013-04-17 12:28:00,
2013-04-17 08:43:00,62.2,59.0,30.20,SSW,201,0.0,1.0,88,0.00,,,0.00,weatherlink.com 1.10,2013-04-17 12:43:00,
2013-04-17 08:58:00,62.7,59.0,30.20,SE,131,1.0,2.0,87,0.00,,,0.00,weatherlink.com 1.10,2013-04-17 12:58:00,
2013-04-17 09:13:00,63.1,59.0,30.19,ENE,72,5.0,5.0,87,0.00,,,0.00,weatherlink.com 1.10,2013-04-17 13:13:00,
2013-04-17 09:28:00,61.4,59.0,30.20,East,90,3.0,5.0,90,0.00,,,0.00,weatherlink.com 1.10,2013-04-17 13:28:00,
2013-04-17 09:43:00,63.0,60.0,30.20,East,88,0.0,3.0,89,0.00,,,0.00,weatherlink.com 1.10,2013-04-17 13:43:00,
2013-04-17 09:58:00,64.3,60.0,30.20,ENE,76,4.0,4.0,86,0.00,,,0.00,weatherlink.com 1.10,2013-04-17 13:58:00,
2013-04-17 11:06:00,66.1,60.0,30.21,ENE,77,7.0,7.0,81,0.00,,,0.00,weatherlink.com 1.10,2013-04-17 15:06:00,
2013-04-17 11:13:00,65.0,60.0,30.21,ENE,76,5.0,6.0,84,0.00,,,0.00,weatherlink.com 1.10,2013-04-17 15:13:00,
2013-04-17 11:28:00,65.1,60.0,30.21,ENE,77,5.0,8.0,83,0.00,,,0.00,weatherlink.com 1.10,2013-04-17 15:28:00,
2013-04-17 11:43:00,64.5,60.0,30.20,East,81,5.0,6.0,84,0.00,,,0.00,weatherlink.com 1.10,2013-04-17 15:43:00,
2013-04-17 11:58:00,65.4,60.0,30.20,ENE,70,6.0,7.0,83,0.00,,,0.00,weatherlink.com 1.10,2013-04-17 15:58:00,
2013-04-17 12:13:00,66.5,60.0,30.20,East,90,8.0,9.0,80,0.00,,,0.00,weatherlink.com 1.10,2013-04-17 16:13:00,
2013-04-17 12:28:00,67.2,60.0,30.19,East,84,11.0,12.0,78,0.00,,,0.00,weatherlink.com 1.10,2013-04-17 16:28:00,
2013-04-17 12:43:00,67.1,60.0,30.20,East,91,10.0,10.0,77,0.00,,,0.00,weatherlink.com 1.10,2013-04-17 16:43:00,
2013-04-17 13:13:00,67.3,60.0,30.20,East,94,11.0,12.0,77,0.00,,,0.00,weatherlink.com 1.10,2013-04-17 17:13:00,
2013-04-17 13:28:00,67.1,60.0,30.19,East,82,11.0,11.0,78,0.00,,,0.00,weatherlink.com 1.10,2013-04-17 17:28:00,
2013-04-17 13:43:00,66.6,61.0,30.19,East,96,12.0,16.0,81,0.00,,,0.00,weatherlink.com 1.10,2013-04-17 17:43:00,
2013-04-17 13:58:00,64.9,60.0,30.19,ENE,70,16.0,19.0,84,0.00,,,0.00,weatherlink.com 1.10,2013-04-17 17:58:00,
2013-04-17 14:13:00,67.2,60.0,30.19,ENE,68,16.0,17.0,78,0.00,,,0.00,weatherlink.com 1.10,2013-04-17 18:13:00,
2013-04-17 14:28:00,66.7,60.0,30.20,ENE,67,16.0,20.0,78,0.00,,,0.00,weatherlink.com 1.10,2013-04-17 18:28:00,
2013-04-17 14:43:00,66.6,59.0,30.20,ENE,63,15.0,18.0,77,0.00,,,0.00,weatherlink.com 1.10,2013-04-17 18:43:00,
2013-04-17 14:58:00,66.2,58.0,30.20,ENE,65,16.0,19.0,76,0.00,,,0.00,weatherlink.com 1.10,2013-04-17 18:58:00,
2013-04-17 15:13:00,66.2,58.0,30.20,ENE,58,15.0,17.0,74,0.00,,,0.00,weatherlink.com 1.10,2013-04-17 19:13:00,
2013-04-17 15:28:00,65.8,57.0,30.20,NE,56,13.0,16.0,74,0.00,,,0.00,weatherlink.com 1.10,2013-04-17 19:28:00,
2013-04-17 15:43:00,65.3,56.0,30.20,NE,48,6.0,15.0,73,0.00,,,0.00,weatherlink.com 1.10,2013-04-17 19:43:00,
2013-04-17 15:58:00,65.0,56.0,30.20,ENE,61,13.0,15.0,73,0.00,,,0.00,weatherlink.com 1.10,2013-04-17 19:58:00,
2013-04-17 16:13:00,64.8,56.0,30.21,NE,51,8.0,16.0,73,0.00,,,0.00,weatherlink.com 1.10,2013-04-17 20:13:00,
2013-04-17 16:28:00,65.1,56.0,30.20,NE,50,14.0,14.0,72,0.00,,,0.00,weatherlink.com 1.10,2013-04-17 20:28:00,
2013-04-17 16:43:00,64.8,56.0,30.20,NE,55,10.0,14.0,72,0.00,,,0.00,weatherlink.com 1.10,2013-04-17 20:43:00,
2013-04-17 16:59:00,65.1,56.0,30.21,ENE,68,9.0,14.0,72,0.00,,,0.00,weatherlink.com 1.10,2013-04-17 20:59:00,
2013-04-17 17:13:00,65.3,56.0,30.21,ENE,60,11.0,14.0,72,0.00,,,0.00,weatherlink.com 1.10,2013-04-17 21:13:00,
2013-04-17 17:28:00,65.4,56.0,30.21,NE,53,10.0,15.0,72,0.00,,,0.00,weatherlink.com 1.10,2013-04-17 21:28:00,
2013-04-17 17:43:00,65.4,57.0,30.21,ENE,65,9.0,13.0,75,0.00,,,0.00,weatherlink.com 1.10,2013-04-17 21:43:00,
2013-04-17 17:58:00,65.5,57.0,30.21,ENE,68,7.0,10.0,73,0.00,,,0.00,weatherlink.com 1.10,2013-04-17 21:58:00,
2013-04-17 18:13:00,65.4,57.0,30.20,ENE,70,8.0,9.0,73,0.00,,,0.00,weatherlink.com 1.10,2013-04-17 22:13:00,
2013-04-17 18:28:00,65.2,57.0,30.21,East,81,5.0,6.0,76,0.00,,,0.00,weatherlink.com 1.10,2013-04-17 22:28:00,
2013-04-17 18:43:00,64.7,57.0,30.21,ESE,105,4.0,5.0,76,0.00,,,0.00,weatherlink.com 1.10,2013-04-17 22:43:00,
2013-04-17 18:58:00,64.4,57.0,30.21,East,101,5.0,5.0,77,0.00,,,0.00,weatherlink.com 1.10,2013-04-17 22:58:00,
2013-04-17 19:13:00,63.9,56.0,30.21,East,101,5.0,6.0,76,0.00,,,0.00,weatherlink.com 1.10,2013-04-17 23:13:00,
2013-04-17 19:28:00,63.9,57.0,30.21,ESE,111,5.0,8.0,78,0.00,,,0.00,weatherlink.com 1.10,2013-04-17 23:28:00,
2013-04-17 19:43:00,64.0,57.0,30.22,ESE,115,6.0,8.0,79,0.00,,,0.00,weatherlink.com 1.10,2013-04-17 23:43:00,
2013-04-17 19:58:00,63.5,57.0,30.23,SE,138,6.0,12.0,79,0.00,,,0.00,weatherlink.com 1.10,2013-04-17 23:58:00,
2013-04-17 20:13:00,63.3,57.0,30.24,ESE,123,4.0,8.0,80,0.00,,,0.00,weatherlink.com 1.10,2013-04-18 00:13:00,
2013-04-17 20:28:00,63.2,57.0,30.25,ESE,122,3.0,4.0,81,0.00,,,0.00,weatherlink.com 1.10,2013-04-18 00:28:00,
2013-04-17 20:43:00,62.9,57.0,30.25,ESE,122,4.0,8.0,82,0.00,,,0.00,weatherlink.com 1.10,2013-04-18 00:43:00,
2013-04-17 20:59:00,62.6,57.0,30.25,SE,143,5.0,8.0,82,0.00,,,0.00,weatherlink.com 1.10,2013-04-18 00:59:00,
2013-04-17 21:14:00,62.4,57.0,30.24,SSE,162,7.0,10.0,83,0.00,,,0.00,weatherlink.com 1.10,2013-04-18 01:14:00,
2013-04-17 21:44:00,62.0,56.0,30.25,SSE,158,4.0,12.0,82,0.00,,,0.00,weatherlink.com 1.10,2013-04-18 01:44:00,
2013-04-17 21:59:00,61.7,56.0,30.25,SSE,150,5.0,9.0,82,0.00,,,0.00,weatherlink.com 1.10,2013-04-18 01:59:00,
2013-04-17 22:14:00,61.6,56.0,30.25,SE,142,4.0,8.0,83,0.00,,,0.00,weatherlink.com 1.10,2013-04-18 02:14:00,
2013-04-17 22:29:00,61.5,56.0,30.25,SSE,150,3.0,5.0,82,0.00,,,0.00,weatherlink.com 1.10,2013-04-18 02:29:00,
2013-04-17 22:44:00,61.5,56.0,30.25,SSW,197,3.0,4.0,83,0.00,,,0.00,weatherlink.com 1.10,2013-04-18 02:44:00,
2013-04-17 22:59:00,61.5,56.0,30.25,South,177,5.0,7.0,83,0.00,,,0.00,weatherlink.com 1.10,2013-04-18 02:59:00,
2013-04-17 23:14:00,61.3,56.0,30.26,South,187,6.0,7.0,82,0.00,,,0.00,weatherlink.com 1.10,2013-04-18 03:14:00,
2013-04-17 23:29:00,61.2,56.0,30.26,SE,145,3.0,8.0,82,0.00,,,0.00,weatherlink.com 1.10,2013-04-18 03:29:00,
2013-04-17 23:44:00,60.8,56.0,30.26,SSW,195,3.0,7.0,83,0.00,,,0.00,weatherlink.com 1.10,2013-04-18 03:44:00,
2013-04-17 23:59:00,60.8,56.0,30.26,SE,146,5.0,6.0,83,0.00,,,0.00,weatherlink.com 1.10,2013-04-18 03:59:00,